sensor_id;sensor_type;location;lat;lon;timestamp;pressure;altitude;pressure_sealevel;temperature;humidity
57604;BME280;43429;47.380;8.484;2022-07-23T00:01:00;96883.88;;;22.92;100.00
57604;BME280;43429;47.380;8.484;2022-07-23T00:03:26;96875.69;;;22.74;100.00
57604;BME280;43429;47.380;8.484;2022-07-23T00:05:52;96874.78;;;22.61;100.00
57604;BME280;43429;47.380;8.484;2022-07-23T00:08:18;96872.97;;;22.55;100.00
57604;BME280;43429;47.380;8.484;2022-07-23T00:10:44;96874.69;;;22.50;100.00
57604;BME280;43429;47.380;8.484;2022-07-23T00:13:11;96877.63;;;22.48;100.00
57604;BME280;43429;47.380;8.484;2022-07-23T00:15:37;96876.41;;;22.44;100.00
57604;BME280;43429;47.380;8.484;2022-07-23T00:18:03;96865.94;;;22.29;100.00
57604;BME280;43429;47.380;8.484;2022-07-23T00:20:28;96849.28;;;22.19;100.00
57604;BME280;43429;47.380;8.484;2022-07-23T00:22:55;96844.88;;;22.18;100.00
57604;BME280;43429;47.380;8.484;2022-07-23T00:25:22;96829.28;;;22.13;100.00
57604;BME280;43429;47.380;8.484;2022-07-23T00:27:48;96832.97;;;22.19;100.00
57604;BME280;43429;47.380;8.484;2022-07-23T00:30:14;96838.28;;;22.07;100.00
57604;BME280;43429;47.380;8.484;2022-07-23T00:32:46;96833.50;;;22.03;100.00
57604;BME280;43429;47.380;8.484;2022-07-23T00:35:12;96834.38;;;22.03;100.00
57604;BME280;43429;47.380;8.484;2022-07-23T00:37:38;96819.38;;;21.94;100.00
57604;BME280;43429;47.380;8.484;2022-07-23T00:40:05;96816.91;;;21.93;100.00
57604;BME280;43429;47.380;8.484;2022-07-23T00:42:32;96817.34;;;21.89;100.00
57604;BME280;43429;47.380;8.484;2022-07-23T00:44:57;96820.66;;;21.92;100.00
57604;BME280;43429;47.380;8.484;2022-07-23T00:47:23;96814.63;;;21.89;100.00
57604;BME280;43429;47.380;8.484;2022-07-23T00:49:49;96813.56;;;21.91;100.00
57604;BME280;43429;47.380;8.484;2022-07-23T00:52:15;96801.75;;;21.78;100.00
57604;BME280;43429;47.380;8.484;2022-07-23T00:54:43;96781.53;;;21.74;100.00
57604;BME280;43429;47.380;8.484;2022-07-23T00:57:11;96780.63;;;21.80;100.00
57604;BME280;43429;47.380;8.484;2022-07-23T00:59:38;96769.16;;;21.78;100.00
57604;BME280;43429;47.380;8.484;2022-07-23T01:02:03;96753.38;;;21.69;100.00
57604;BME280;43429;47.380;8.484;2022-07-23T01:04:29;96749.66;;;21.63;100.00
57604;BME280;43429;47.380;8.484;2022-07-23T01:06:55;96746.78;;;21.58;100.00
57604;BME280;43429;47.380;8.484;2022-07-23T01:09:21;96759.19;;;21.47;100.00
57604;BME280;43429;47.380;8.484;2022-07-23T01:11:47;96764.00;;;21.45;100.00
57604;BME280;43429;47.380;8.484;2022-07-23T01:14:14;96763.63;;;21.42;100.00
57604;BME280;43429;47.380;8.484;2022-07-23T01:16:41;96757.63;;;21.33;100.00
57604;BME280;43429;47.380;8.484;2022-07-23T01:19:08;96765.34;;;21.29;100.00
57604;BME280;43429;47.380;8.484;2022-07-23T01:21:35;96754.66;;;21.09;100.00
57604;BME280;43429;47.380;8.484;2022-07-23T01:24:02;96762.53;;;20.86;100.00
57604;BME280;43429;47.380;8.484;2022-07-23T01:26:29;96764.75;;;20.64;100.00
57604;BME280;43429;47.380;8.484;2022-07-23T01:28:55;96767.78;;;20.81;100.00
57604;BME280;43429;47.380;8.484;2022-07-23T01:31:20;96750.72;;;21.05;100.00
57604;BME280;43429;47.380;8.484;2022-07-23T01:33:46;96732.59;;;21.24;100.00
57604;BME280;43429;47.380;8.484;2022-07-23T01:36:13;96740.28;;;21.34;100.00
57604;BME280;43429;47.380;8.484;2022-07-23T01:38:39;96738.97;;;21.43;100.00
57604;BME280;43429;47.380;8.484;2022-07-23T01:41:06;96753.03;;;21.58;100.00
57604;BME280;43429;47.380;8.484;2022-07-23T01:43:32;96760.13;;;21.59;100.00
57604;BME280;43429;47.380;8.484;2022-07-23T01:45:57;96774.09;;;21.63;100.00
57604;BME280;43429;47.380;8.484;2022-07-23T01:48:23;96776.19;;;21.61;100.00
57604;BME280;43429;47.380;8.484;2022-07-23T01:50:49;96773.19;;;21.51;100.00
57604;BME280;43429;47.380;8.484;2022-07-23T01:53:15;96774.34;;;21.61;100.00
57604;BME280;43429;47.380;8.484;2022-07-23T01:55:41;96761.41;;;21.57;100.00
57604;BME280;43429;47.380;8.484;2022-07-23T01:58:07;96752.81;;;21.60;100.00
57604;BME280;43429;47.380;8.484;2022-07-23T02:00:33;96747.84;;;21.57;100.00
57604;BME280;43429;47.380;8.484;2022-07-23T02:02:59;96755.09;;;21.63;100.00
57604;BME280;43429;47.380;8.484;2022-07-23T02:05:25;96753.03;;;21.58;100.00
57604;BME280;43429;47.380;8.484;2022-07-23T02:07:54;96759.63;;;21.69;100.00
57604;BME280;43429;47.380;8.484;2022-07-23T02:10:20;96755.91;;;21.63;100.00
57604;BME280;43429;47.380;8.484;2022-07-23T02:12:46;96756.81;;;21.57;100.00
57604;BME280;43429;47.380;8.484;2022-07-23T02:15:12;96757.91;;;21.50;100.00
57604;BME280;43429;47.380;8.484;2022-07-23T02:17:39;96752.31;;;21.45;100.00
57604;BME280;43429;47.380;8.484;2022-07-23T02:20:05;96751.88;;;21.48;100.00
57604;BME280;43429;47.380;8.484;2022-07-23T02:22:31;96769.16;;;21.53;100.00
57604;BME280;43429;47.380;8.484;2022-07-23T02:24:57;96776.91;;;21.50;100.00
57604;BME280;43429;47.380;8.484;2022-07-23T02:27:23;96770.47;;;21.51;100.00
57604;BME280;43429;47.380;8.484;2022-07-23T02:29:49;96776.25;;;21.54;100.00
57604;BME280;43429;47.380;8.484;2022-07-23T02:32:16;96768.41;;;21.46;100.00
57604;BME280;43429;47.380;8.484;2022-07-23T02:34:42;96774.16;;;21.56;100.00
57604;BME280;43429;47.380;8.484;2022-07-23T02:37:08;96767.88;;;21.56;100.00
57604;BME280;43429;47.380;8.484;2022-07-23T02:39:34;96773.53;;;21.54;100.00
57604;BME280;43429;47.380;8.484;2022-07-23T02:41:59;96768.78;;;21.50;100.00
57604;BME280;43429;47.380;8.484;2022-07-23T02:44:25;96787.06;;;21.36;100.00
57604;BME280;43429;47.380;8.484;2022-07-23T02:46:51;96797.81;;;21.49;100.00
57604;BME280;43429;47.380;8.484;2022-07-23T02:49:19;96795.56;;;21.46;100.00
57604;BME280;43429;47.380;8.484;2022-07-23T02:51:45;96802.09;;;21.39;100.00
57604;BME280;43429;47.380;8.484;2022-07-23T02:54:12;96801.31;;;21.31;100.00
57604;BME280;43429;47.380;8.484;2022-07-23T02:56:38;96783.53;;;21.29;100.00
57604;BME280;43429;47.380;8.484;2022-07-23T02:59:04;96784.25;;;21.18;100.00
57604;BME280;43429;47.380;8.484;2022-07-23T03:01:30;96791.78;;;21.16;100.00
57604;BME280;43429;47.380;8.484;2022-07-23T03:03:55;96803.94;;;21.06;100.00
57604;BME280;43429;47.380;8.484;2022-07-23T03:06:22;96817.41;;;20.88;100.00
57604;BME280;43429;47.380;8.484;2022-07-23T03:08:48;96838.34;;;20.74;100.00
57604;BME280;43429;47.380;8.484;2022-07-23T03:11:15;96856.56;;;20.41;100.00
57604;BME280;43429;47.380;8.484;2022-07-23T03:13:41;96866.38;;;20.55;100.00
57604;BME280;43429;47.380;8.484;2022-07-23T03:16:07;96852.41;;;20.51;100.00
57604;BME280;43429;47.380;8.484;2022-07-23T03:18:35;96821.50;;;20.59;100.00
57604;BME280;43429;47.380;8.484;2022-07-23T03:21:02;96808.19;;;20.51;100.00
57604;BME280;43429;47.380;8.484;2022-07-23T03:23:29;96779.00;;;20.46;100.00
57604;BME280;43429;47.380;8.484;2022-07-23T03:25:55;96780.88;;;20.52;100.00
57604;BME280;43429;47.380;8.484;2022-07-23T03:28:21;96780.41;;;20.55;100.00
57604;BME280;43429;47.380;8.484;2022-07-23T03:30:48;96783.38;;;20.47;100.00
57604;BME280;43429;47.380;8.484;2022-07-23T03:33:14;96796.53;;;20.37;100.00
57604;BME280;43429;47.380;8.484;2022-07-23T03:35:41;96787.53;;;20.50;100.00
57604;BME280;43429;47.380;8.484;2022-07-23T03:38:07;96772.13;;;20.37;100.00
57604;BME280;43429;47.380;8.484;2022-07-23T03:40:33;96775.91;;;20.36;100.00
57604;BME280;43429;47.380;8.484;2022-07-23T03:42:59;96784.03;;;20.29;100.00
57604;BME280;43429;47.380;8.484;2022-07-23T03:45:25;96782.44;;;20.15;100.00
57604;BME280;43429;47.380;8.484;2022-07-23T03:47:51;96783.06;;;20.11;100.00
57604;BME280;43429;47.380;8.484;2022-07-23T03:50:17;96793.50;;;20.07;100.00
57604;BME280;43429;47.380;8.484;2022-07-23T03:52:43;96794.56;;;19.99;100.00
57604;BME280;43429;47.380;8.484;2022-07-23T03:55:09;96793.50;;;19.94;100.00
57604;BME280;43429;47.380;8.484;2022-07-23T03:57:36;96797.47;;;19.91;100.00
57604;BME280;43429;47.380;8.484;2022-07-23T04:00:02;96819.75;;;19.93;100.00
57604;BME280;43429;47.380;8.484;2022-07-23T04:02:29;96839.34;;;19.89;100.00
57604;BME280;43429;47.380;8.484;2022-07-23T04:04:55;96841.88;;;19.97;100.00
57604;BME280;43429;47.380;8.484;2022-07-23T04:07:21;96846.88;;;20.00;100.00
57604;BME280;43429;47.380;8.484;2022-07-23T04:09:47;96837.28;;;19.97;100.00
57604;BME280;43429;47.380;8.484;2022-07-23T04:12:13;96832.91;;;19.96;100.00
57604;BME280;43429;47.380;8.484;2022-07-23T04:14:39;96833.94;;;20.02;100.00
57604;BME280;43429;47.380;8.484;2022-07-23T04:17:05;96827.66;;;20.08;100.00
57604;BME280;43429;47.380;8.484;2022-07-23T04:19:32;96835.19;;;20.06;100.00
57604;BME280;43429;47.380;8.484;2022-07-23T04:21:57;96838.09;;;20.04;100.00
57604;BME280;43429;47.380;8.484;2022-07-23T04:24:23;96847.06;;;20.05;100.00
57604;BME280;43429;47.380;8.484;2022-07-23T04:26:49;96861.44;;;20.12;100.00
57604;BME280;43429;47.380;8.484;2022-07-23T04:29:15;96869.75;;;20.24;100.00
57604;BME280;43429;47.380;8.484;2022-07-23T04:31:41;96863.09;;;20.26;100.00
57604;BME280;43429;47.380;8.484;2022-07-23T04:34:07;96873.94;;;20.13;100.00
57604;BME280;43429;47.380;8.484;2022-07-23T04:36:34;96880.19;;;20.27;100.00
57604;BME280;43429;47.380;8.484;2022-07-23T04:39:01;96897.69;;;20.24;100.00
57604;BME280;43429;47.380;8.484;2022-07-23T04:41:27;96910.44;;;20.17;100.00
57604;BME280;43429;47.380;8.484;2022-07-23T04:43:53;96927.31;;;20.06;100.00
57604;BME280;43429;47.380;8.484;2022-07-23T04:46:19;96934.41;;;20.14;100.00
57604;BME280;43429;47.380;8.484;2022-07-23T04:48:45;96930.03;;;20.06;100.00
57604;BME280;43429;47.380;8.484;2022-07-23T04:51:11;96932.31;;;20.09;100.00
57604;BME280;43429;47.380;8.484;2022-07-23T04:53:37;96932.72;;;20.13;100.00
57604;BME280;43429;47.380;8.484;2022-07-23T04:56:03;96930.25;;;20.11;100.00
57604;BME280;43429;47.380;8.484;2022-07-23T04:58:29;96915.22;;;20.22;100.00
57604;BME280;43429;47.380;8.484;2022-07-23T05:00:57;96912.91;;;20.25;100.00
57604;BME280;43429;47.380;8.484;2022-07-23T05:03:23;96912.94;;;20.12;100.00
57604;BME280;43429;47.380;8.484;2022-07-23T05:05:49;96917.50;;;20.18;100.00
57604;BME280;43429;47.380;8.484;2022-07-23T05:08:15;96918.78;;;20.16;100.00
57604;BME280;43429;47.380;8.484;2022-07-23T05:10:41;96928.78;;;20.22;100.00
57604;BME280;43429;47.380;8.484;2022-07-23T05:13:08;96938.16;;;20.19;100.00
57604;BME280;43429;47.380;8.484;2022-07-23T05:15:34;96928.97;;;20.07;100.00
57604;BME280;43429;47.380;8.484;2022-07-23T05:18:00;96940.25;;;20.11;100.00
57604;BME280;43429;47.380;8.484;2022-07-23T05:20:26;96937.94;;;20.07;100.00
57604;BME280;43429;47.380;8.484;2022-07-23T05:22:52;96934.63;;;20.05;100.00
57604;BME280;43429;47.380;8.484;2022-07-23T05:25:18;96936.50;;;20.05;100.00
57604;BME280;43429;47.380;8.484;2022-07-23T05:27:44;96961.91;;;20.04;100.00
57604;BME280;43429;47.380;8.484;2022-07-23T05:30:12;96944.84;;;20.17;100.00
57604;BME280;43429;47.380;8.484;2022-07-23T05:32:38;96950.44;;;19.89;100.00
57604;BME280;43429;47.380;8.484;2022-07-23T05:35:05;96949.16;;;19.71;100.00
57604;BME280;43429;47.380;8.484;2022-07-23T05:37:32;96947.91;;;19.67;100.00
57604;BME280;43429;47.380;8.484;2022-07-23T05:40:00;96929.97;;;19.53;100.00
57604;BME280;43429;47.380;8.484;2022-07-23T05:42:27;96897.03;;;19.56;100.00
57604;BME280;43429;47.380;8.484;2022-07-23T05:44:53;96893.91;;;19.46;100.00
57604;BME280;43429;47.380;8.484;2022-07-23T05:47:19;96894.50;;;19.35;100.00
57604;BME280;43429;47.380;8.484;2022-07-23T05:49:44;96890.56;;;19.44;100.00
57604;BME280;43429;47.380;8.484;2022-07-23T05:52:10;96889.75;;;19.50;100.00
57604;BME280;43429;47.380;8.484;2022-07-23T05:54:36;96898.69;;;19.50;100.00
57604;BME280;43429;47.380;8.484;2022-07-23T05:57:04;96905.16;;;19.49;100.00
57604;BME280;43429;47.380;8.484;2022-07-23T05:59:31;96915.16;;;19.42;100.00
57604;BME280;43429;47.380;8.484;2022-07-23T06:01:57;96927.66;;;19.50;100.00
57604;BME280;43429;47.380;8.484;2022-07-23T06:04:24;96925.13;;;19.35;100.00
57604;BME280;43429;47.380;8.484;2022-07-23T06:06:51;96945.56;;;19.44;100.00
57604;BME280;43429;47.380;8.484;2022-07-23T06:09:17;96945.16;;;19.54;100.00
57604;BME280;43429;47.380;8.484;2022-07-23T06:11:44;96951.19;;;19.56;100.00
57604;BME280;43429;47.380;8.484;2022-07-23T06:14:11;96964.03;;;19.27;100.00
57604;BME280;43429;47.380;8.484;2022-07-23T06:16:37;96966.97;;;19.39;100.00
57604;BME280;43429;47.380;8.484;2022-07-23T06:19:03;96975.94;;;19.40;100.00
57604;BME280;43429;47.380;8.484;2022-07-23T06:21:30;96994.34;;;19.58;100.00
57604;BME280;43429;47.380;8.484;2022-07-23T06:23:58;97011.81;;;19.55;100.00
57604;BME280;43429;47.380;8.484;2022-07-23T06:26:23;97012.19;;;19.45;100.00
57604;BME280;43429;47.380;8.484;2022-07-23T06:28:50;97008.81;;;19.37;100.00
57604;BME280;43429;47.380;8.484;2022-07-23T06:31:17;96993.22;;;19.32;100.00
57604;BME280;43429;47.380;8.484;2022-07-23T06:33:43;96999.41;;;19.26;100.00
57604;BME280;43429;47.380;8.484;2022-07-23T06:36:09;96980.22;;;19.21;100.00
57604;BME280;43429;47.380;8.484;2022-07-23T06:38:36;96980.28;;;19.27;100.00
57604;BME280;43429;47.380;8.484;2022-07-23T06:41:01;96991.50;;;19.31;100.00
57604;BME280;43429;47.380;8.484;2022-07-23T06:43:28;96972.75;;;19.23;100.00
57604;BME280;43429;47.380;8.484;2022-07-23T06:45:56;96988.19;;;19.36;100.00
57604;BME280;43429;47.380;8.484;2022-07-23T06:48:24;97000.31;;;19.40;100.00
57604;BME280;43429;47.380;8.484;2022-07-23T06:50:50;96989.94;;;19.56;100.00
57604;BME280;43429;47.380;8.484;2022-07-23T06:53:18;96996.81;;;19.52;100.00
57604;BME280;43429;47.380;8.484;2022-07-23T06:55:44;97014.28;;;19.50;100.00
57604;BME280;43429;47.380;8.484;2022-07-23T06:58:10;97017.72;;;19.72;100.00
57604;BME280;43429;47.380;8.484;2022-07-23T07:00:36;97016.50;;;19.81;100.00
57604;BME280;43429;47.380;8.484;2022-07-23T07:03:02;97012.97;;;19.94;100.00
57604;BME280;43429;47.380;8.484;2022-07-23T07:05:28;97017.59;;;20.06;100.00
57604;BME280;43429;47.380;8.484;2022-07-23T07:07:55;97022.59;;;20.29;100.00
57604;BME280;43429;47.380;8.484;2022-07-23T07:10:21;97022.00;;;20.47;100.00
57604;BME280;43429;47.380;8.484;2022-07-23T07:12:47;97015.72;;;20.40;100.00
57604;BME280;43429;47.380;8.484;2022-07-23T07:15:13;97041.16;;;20.32;100.00
57604;BME280;43429;47.380;8.484;2022-07-23T07:17:39;97044.06;;;20.24;100.00
57604;BME280;43429;47.380;8.484;2022-07-23T07:20:05;97048.66;;;20.17;100.00
57604;BME280;43429;47.380;8.484;2022-07-23T07:22:34;97050.31;;;20.18;100.00
57604;BME280;43429;47.380;8.484;2022-07-23T07:24:59;97036.56;;;20.26;100.00
57604;BME280;43429;47.380;8.484;2022-07-23T07:27:27;97029.50;;;20.32;100.00
57604;BME280;43429;47.380;8.484;2022-07-23T07:29:52;97035.53;;;20.27;100.00
57604;BME280;43429;47.380;8.484;2022-07-23T07:32:18;97040.34;;;20.32;100.00
57604;BME280;43429;47.380;8.484;2022-07-23T07:34:44;97052.00;;;20.32;100.00
57604;BME280;43429;47.380;8.484;2022-07-23T07:37:10;97055.97;;;20.30;100.00
57604;BME280;43429;47.380;8.484;2022-07-23T07:39:36;97052.63;;;20.21;100.00
57604;BME280;43429;47.380;8.484;2022-07-23T07:42:05;97050.31;;;20.18;100.00
57604;BME280;43429;47.380;8.484;2022-07-23T07:44:30;97043.44;;;20.16;100.00
57604;BME280;43429;47.380;8.484;2022-07-23T07:46:56;97046.38;;;20.21;100.00
57604;BME280;43429;47.380;8.484;2022-07-23T07:51:51;97043.22;;;20.11;100.00
57604;BME280;43429;47.380;8.484;2022-07-23T07:54:17;97030.72;;;20.29;100.00
57604;BME280;43429;47.380;8.484;2022-07-23T07:56:43;97024.91;;;20.26;100.00
57604;BME280;43429;47.380;8.484;2022-07-23T07:59:09;97026.56;;;20.27;100.00
57604;BME280;43429;47.380;8.484;2022-07-23T08:01:37;97016.97;;;20.44;100.00
57604;BME280;43429;47.380;8.484;2022-07-23T08:04:03;97005.75;;;20.47;100.00
57604;BME280;43429;47.380;8.484;2022-07-23T08:06:29;97001.75;;;20.70;100.00
57604;BME280;43429;47.380;8.484;2022-07-23T08:08:55;96991.09;;;20.75;100.00
57604;BME280;43429;47.380;8.484;2022-07-23T08:11:21;96989.31;;;21.14;100.00
57604;BME280;43429;47.380;8.484;2022-07-23T08:13:47;96999.22;;;20.81;100.00
57604;BME280;43429;47.380;8.484;2022-07-23T08:16:13;97010.00;;;21.08;100.00
57604;BME280;43429;47.380;8.484;2022-07-23T08:18:39;97012.72;;;21.08;100.00
57604;BME280;43429;47.380;8.484;2022-07-23T08:21:05;97019.41;;;21.12;100.00
57604;BME280;43429;47.380;8.484;2022-07-23T08:23:31;97019.38;;;21.32;100.00
57604;BME280;43429;47.380;8.484;2022-07-23T08:25:57;97035.66;;;21.25;100.00
57604;BME280;43429;47.380;8.484;2022-07-23T08:28:24;97031.66;;;21.34;100.00
57604;BME280;43429;47.380;8.484;2022-07-23T08:30:51;97027.72;;;21.75;100.00
57604;BME280;43429;47.380;8.484;2022-07-23T08:33:17;97031.31;;;21.69;100.00
57604;BME280;43429;47.380;8.484;2022-07-23T08:35:44;97038.84;;;21.67;100.00
57604;BME280;43429;47.380;8.484;2022-07-23T08:38:12;97039.13;;;21.91;100.00
57604;BME280;43429;47.380;8.484;2022-07-23T08:40:38;97042.78;;;21.71;100.00
57604;BME280;43429;47.380;8.484;2022-07-23T08:43:05;97037.47;;;21.45;100.00
57604;BME280;43429;47.380;8.484;2022-07-23T08:45:34;97043.53;;;21.40;100.00
57604;BME280;43429;47.380;8.484;2022-07-23T08:48:02;97037.69;;;21.43;100.00
57604;BME280;43429;47.380;8.484;2022-07-23T08:50:28;97037.06;;;21.48;100.00
57604;BME280;43429;47.380;8.484;2022-07-23T08:52:54;97038.06;;;21.53;100.00
57604;BME280;43429;47.380;8.484;2022-07-23T08:55:24;97037.59;;;20.92;100.00
57604;BME280;43429;47.380;8.484;2022-07-23T08:57:51;97052.00;;;20.99;100.00
57604;BME280;43429;47.380;8.484;2022-07-23T09:00:18;97044.72;;;20.79;100.00
57604;BME280;43429;47.380;8.484;2022-07-23T09:02:44;97038.44;;;20.85;100.00
57604;BME280;43429;47.380;8.484;2022-07-23T09:05:12;97023.44;;;20.56;100.00
57604;BME280;43429;47.380;8.484;2022-07-23T09:07:38;97021.59;;;20.64;100.00
57604;BME280;43429;47.380;8.484;2022-07-23T09:10:23;97026.75;;;20.92;100.00
57604;BME280;43429;47.380;8.484;2022-07-23T09:12:49;97023.25;;;20.65;100.00
57604;BME280;43429;47.380;8.484;2022-07-23T09:15:15;97024.03;;;20.92;100.00
57604;BME280;43429;47.380;8.484;2022-07-23T09:17:42;97030.97;;;20.54;100.00
57604;BME280;43429;47.380;8.484;2022-07-23T09:20:09;97031.81;;;20.68;100.00
57604;BME280;43429;47.380;8.484;2022-07-23T09:22:35;97028.25;;;20.61;100.00
57604;BME280;43429;47.380;8.484;2022-07-23T09:25:02;97029.09;;;20.68;100.00
57604;BME280;43429;47.380;8.484;2022-07-23T09:27:44;97027.81;;;20.91;100.00
57604;BME280;43429;47.380;8.484;2022-07-23T09:30:11;97032.00;;;20.80;100.00
57604;BME280;43429;47.380;8.484;2022-07-23T09:32:37;97031.16;;;20.79;100.00
57604;BME280;43429;47.380;8.484;2022-07-23T09:35:04;97023.88;;;20.60;100.00
57604;BME280;43429;47.380;8.484;2022-07-23T09:37:30;97032.41;;;20.70;100.00
57604;BME280;43429;47.380;8.484;2022-07-23T09:40:03;97035.31;;;20.82;100.00
57604;BME280;43429;47.380;8.484;2022-07-23T09:42:30;97036.81;;;20.65;100.00
57604;BME280;43429;47.380;8.484;2022-07-23T09:44:56;97041.56;;;20.96;100.00
57604;BME280;43429;47.380;8.484;2022-07-23T09:47:23;97037.41;;;20.87;100.00
57604;BME280;43429;47.380;8.484;2022-07-23T09:49:59;97038.28;;;20.74;100.00
57604;BME280;43429;47.380;8.484;2022-07-23T09:52:26;97044.06;;;20.97;100.00
57604;BME280;43429;47.380;8.484;2022-07-23T09:54:57;97042.44;;;20.83;100.00
57604;BME280;43429;47.380;8.484;2022-07-23T09:57:24;97023.19;;;20.98;100.00
57604;BME280;43429;47.380;8.484;2022-07-23T09:59:50;97033.34;;;21.22;100.00
57604;BME280;43429;47.380;8.484;2022-07-23T10:02:16;97051.50;;;21.42;100.00
57604;BME280;43429;47.380;8.484;2022-07-23T10:04:42;97051.25;;;21.50;100.00
57604;BME280;43429;47.380;8.484;2022-07-23T10:07:09;97040.28;;;21.70;100.00
57604;BME280;43429;47.380;8.484;2022-07-23T10:09:37;97043.53;;;21.47;100.00
57604;BME280;43429;47.380;8.484;2022-07-23T10:12:03;97045.69;;;21.18;100.00
57604;BME280;43429;47.380;8.484;2022-07-23T10:14:47;97049.00;;;21.27;100.00
57604;BME280;43429;47.380;8.484;2022-07-23T10:17:13;97054.44;;;21.33;100.00
57604;BME280;43429;47.380;8.484;2022-07-23T10:19:40;97044.41;;;21.34;100.00
57604;BME280;43429;47.380;8.484;2022-07-23T10:22:07;97055.28;;;21.27;100.00
57604;BME280;43429;47.380;8.484;2022-07-23T10:24:39;97061.97;;;21.31;100.00
57604;BME280;43429;47.380;8.484;2022-07-23T10:27:10;97050.09;;;21.06;100.00
57604;BME280;43429;47.380;8.484;2022-07-23T10:29:42;97037.97;;;21.08;100.00
57604;BME280;43429;47.380;8.484;2022-07-23T10:32:16;97041.50;;;21.35;100.00
57604;BME280;43429;47.380;8.484;2022-07-23T10:34:44;97053.34;;;21.48;100.00
57604;BME280;43429;47.380;8.484;2022-07-23T10:37:15;97065.38;;;21.72;100.00
57604;BME280;43429;47.380;8.484;2022-07-23T10:39:45;97060.06;;;21.90;100.00
57604;BME280;43429;47.380;8.484;2022-07-23T10:42:12;97056.59;;;21.70;100.00
57604;BME280;43429;47.380;8.484;2022-07-23T10:44:40;97048.53;;;21.95;100.00
57604;BME280;43429;47.380;8.484;2022-07-23T10:47:07;97054.25;;;22.18;100.00
57604;BME280;43429;47.380;8.484;2022-07-23T10:49:47;97044.84;;;21.82;100.00
57604;BME280;43429;47.380;8.484;2022-07-23T10:52:23;97043.53;;;21.47;100.00
57604;BME280;43429;47.380;8.484;2022-07-23T10:54:51;97047.19;;;21.72;100.00
57604;BME280;43429;47.380;8.484;2022-07-23T10:57:18;97038.06;;;21.98;100.00
57604;BME280;43429;47.380;8.484;2022-07-23T11:02:30;97039.25;;;22.65;100.00
57604;BME280;43429;47.380;8.484;2022-07-23T11:05:00;97035.47;;;22.91;100.00
57604;BME280;43429;47.380;8.484;2022-07-23T11:07:26;97042.53;;;23.54;100.00
57604;BME280;43429;47.380;8.484;2022-07-23T11:09:52;97050.91;;;23.89;100.00
57604;BME280;43429;47.380;8.484;2022-07-23T11:12:32;97034.16;;;24.04;100.00
57604;BME280;43429;47.380;8.484;2022-07-23T11:14:58;97033.38;;;24.27;100.00
57604;BME280;43429;47.380;8.484;2022-07-23T11:17:24;97036.91;;;24.46;100.00
57604;BME280;43429;47.380;8.484;2022-07-23T11:22:37;97034.28;;;24.51;100.00
57604;BME280;43429;47.380;8.484;2022-07-23T11:25:04;97013.69;;;25.14;100.00
57604;BME280;43429;47.380;8.484;2022-07-23T11:27:36;97026.50;;;25.13;100.00
57604;BME280;43429;47.380;8.484;2022-07-23T11:30:03;97019.34;;;25.36;100.00
57604;BME280;43429;47.380;8.484;2022-07-23T11:32:30;97017.22;;;25.03;100.00
57604;BME280;43429;47.380;8.484;2022-07-23T11:34:58;97010.00;;;24.96;100.00
57604;BME280;43429;47.380;8.484;2022-07-23T11:37:28;97012.25;;;25.23;100.00
57604;BME280;43429;47.380;8.484;2022-07-23T11:39:55;97011.16;;;26.05;100.00
57604;BME280;43429;47.380;8.484;2022-07-23T11:42:21;97014.09;;;26.43;100.00
57604;BME280;43429;47.380;8.484;2022-07-23T11:44:47;97015.34;;;26.24;100.00
57604;BME280;43429;47.380;8.484;2022-07-23T11:47:13;97015.28;;;27.03;99.32
57604;BME280;43429;47.380;8.484;2022-07-23T11:49:43;97017.72;;;26.66;98.37
57604;BME280;43429;47.380;8.484;2022-07-23T11:52:17;97014.56;;;27.68;91.14
57604;BME280;43429;47.380;8.484;2022-07-23T11:54:46;97012.72;;;26.96;100.00
57604;BME280;43429;47.380;8.484;2022-07-23T11:57:13;97012.19;;;27.77;91.56
57604;BME280;43429;47.380;8.484;2022-07-23T11:59:39;97012.75;;;27.35;91.54
57604;BME280;43429;47.380;8.484;2022-07-23T12:02:06;97007.66;;;27.88;86.58
57604;BME280;43429;47.380;8.484;2022-07-23T12:04:38;97001.94;;;28.16;84.77
57604;BME280;43429;47.380;8.484;2022-07-23T12:07:05;97011.53;;;28.19;88.30
57604;BME280;43429;47.380;8.484;2022-07-23T12:09:47;97020.38;;;28.48;83.35
57604;BME280;43429;47.380;8.484;2022-07-23T12:12:14;97015.44;;;28.82;79.11
57604;BME280;43429;47.380;8.484;2022-07-23T12:14:46;97007.34;;;28.33;83.04
57604;BME280;43429;47.380;8.484;2022-07-23T12:17:12;97011.03;;;27.95;84.25
57604;BME280;43429;47.380;8.484;2022-07-23T12:19:38;97014.28;;;28.41;73.41
57604;BME280;43429;47.380;8.484;2022-07-23T12:22:04;97020.59;;;28.73;75.13
57604;BME280;43429;47.380;8.484;2022-07-23T12:24:30;97009.50;;;29.43;66.54
57604;BME280;43429;47.380;8.484;2022-07-23T12:27:08;97004.63;;;30.58;62.88
57604;BME280;43429;47.380;8.484;2022-07-23T12:29:35;96994.44;;;30.49;62.43
57604;BME280;43429;47.380;8.484;2022-07-23T12:32:01;97007.38;;;30.43;66.37
57604;BME280;43429;47.380;8.484;2022-07-23T12:34:28;96999.41;;;30.67;71.30
57604;BME280;43429;47.380;8.484;2022-07-23T12:36:54;96997.97;;;33.13;55.55
57604;BME280;43429;47.380;8.484;2022-07-23T12:39:29;96996.84;;;31.37;58.49
57604;BME280;43429;47.380;8.484;2022-07-23T12:41:55;96995.53;;;30.99;60.79
57604;BME280;43429;47.380;8.484;2022-07-23T12:44:21;96992.53;;;30.49;64.80
57604;BME280;43429;47.380;8.484;2022-07-23T12:46:49;96993.91;;;32.42;56.48
57604;BME280;43429;47.380;8.484;2022-07-23T12:49:24;96994.91;;;31.42;58.61
57604;BME280;43429;47.380;8.484;2022-07-23T12:51:50;96989.72;;;33.08;50.87
57604;BME280;43429;47.380;8.484;2022-07-23T12:54:17;96985.78;;;34.48;48.27
57604;BME280;43429;47.380;8.484;2022-07-23T12:56:44;96981.19;;;35.22;45.72